sensor_id;sensor_type;location;lat;lon;timestamp;pressure;altitude;pressure_sealevel;temperature;humidity
57990;BME280;58373;51.824;5.564;2023-05-22T00:00:41;101388.41;;;15.53;100.00
57990;BME280;58373;51.824;5.564;2023-05-22T00:03:06;101388.72;;;15.50;100.00
57990;BME280;58373;51.824;5.564;2023-05-22T00:05:32;101397.25;;;15.52;100.00
57990;BME280;58373;51.824;5.564;2023-05-22T00:07:58;101392.00;;;15.52;100.00
57990;BME280;58373;51.824;5.564;2023-05-22T00:10:23;101397.25;;;15.52;100.00
57990;BME280;58373;51.824;5.564;2023-05-22T00:12:49;101404.81;;;15.55;100.00
57990;BME280;58373;51.824;5.564;2023-05-22T00:15:14;101407.41;;;15.55;100.00
57990;BME280;58373;51.824;5.564;2023-05-22T00:17:39;101406.28;;;15.57;100.00
57990;BME280;58373;51.824;5.564;2023-05-22T00:20:05;101401.06;;;15.57;100.00
57990;BME280;58373;51.824;5.564;2023-05-22T00:22:35;101424.44;;;15.59;100.00
57990;BME280;58373;51.824;5.564;2023-05-22T00:25:01;101418.00;;;15.63;99.62
57990;BME280;58373;51.824;5.564;2023-05-22T00:27:27;101412.50;;;15.66;99.50
57990;BME280;58373;51.824;5.564;2023-05-22T00:29:52;101408.91;;;15.67;98.97
57990;BME280;58373;51.824;5.564;2023-05-22T00:32:17;101409.75;;;15.68;99.01
57990;BME280;58373;51.824;5.564;2023-05-22T00:34:42;101400.75;;;15.70;99.63
57990;BME280;58373;51.824;5.564;2023-05-22T00:37:08;101402.72;;;15.68;100.00
57990;BME280;58373;51.824;5.564;2023-05-22T00:39:34;101410.84;;;15.65;99.65
57990;BME280;58373;51.824;5.564;2023-05-22T00:41:59;101408.22;;;15.65;98.16
57990;BME280;58373;51.824;5.564;2023-05-22T00:44:25;101408.22;;;15.65;98.58
57990;BME280;58373;51.824;5.564;2023-05-22T00:46:51;101406.31;;;15.67;98.46
57990;BME280;58373;51.824;5.564;2023-05-22T00:49:16;101409.59;;;15.69;98.43
57990;BME280;58373;51.824;5.564;2023-05-22T00:51:41;101418.41;;;15.68;98.38
57990;BME280;58373;51.824;5.564;2023-05-22T00:54:06;101406.31;;;15.67;98.33
57990;BME280;58373;51.824;5.564;2023-05-22T00:56:33;101407.94;;;15.68;98.43
57990;BME280;58373;51.824;5.564;2023-05-22T00:58:58;101408.75;;;15.69;98.59
57990;BME280;58373;51.824;5.564;2023-05-22T01:01:24;101399.44;;;15.66;99.63
57990;BME280;58373;51.824;5.564;2023-05-22T01:03:50;101398.31;;;15.59;100.00
57990;BME280;58373;51.824;5.564;2023-05-22T01:06:16;101392.31;;;15.49;100.00
57990;BME280;58373;51.824;5.564;2023-05-22T01:08:45;101390.94;;;15.45;99.75
57990;BME280;58373;51.824;5.564;2023-05-22T01:11:17;101384.06;;;15.44;100.00
57990;BME280;58373;51.824;5.564;2023-05-22T01:13:54;101372.78;;;15.43;99.73
57990;BME280;58373;51.824;5.564;2023-05-22T01:21:35;101377.19;;;15.43;99.04
57990;BME280;58373;51.824;5.564;2023-05-22T01:31:39;101376.09;;;15.35;99.33
57990;BME280;58373;51.824;5.564;2023-05-22T01:34:09;101369.53;;;15.31;99.01
57990;BME280;58373;51.824;5.564;2023-05-22T01:36:34;101368.16;;;15.27;99.84
57990;BME280;58373;51.824;5.564;2023-05-22T01:39:00;101371.03;;;15.24;98.92
57990;BME280;58373;51.824;5.564;2023-05-22T01:41:29;101371.03;;;15.24;98.71
57990;BME280;58373;51.824;5.564;2023-05-22T01:43:56;101373.66;;;15.24;99.03
57990;BME280;58373;51.824;5.564;2023-05-22T01:46:24;101373.66;;;15.24;99.03
57990;BME280;58373;51.824;5.564;2023-05-22T01:48:49;101370.38;;;15.22;98.89
57990;BME280;58373;51.824;5.564;2023-05-22T01:51:17;101376.41;;;15.23;99.07
57990;BME280;58373;51.824;5.564;2023-05-22T01:56:17;101370.38;;;15.22;98.85
57990;BME280;58373;51.824;5.564;2023-05-22T01:59:00;101377.81;;;15.17;98.98
57990;BME280;58373;51.824;5.564;2023-05-22T02:01:28;101367.34;;;15.17;99.11
57990;BME280;58373;51.824;5.564;2023-05-22T02:03:56;101364.59;;;15.19;99.26
57990;BME280;58373;51.824;5.564;2023-05-22T02:06:22;101367.91;;;15.21;98.96
57990;BME280;58373;51.824;5.564;2023-05-22T02:08:49;101365.16;;;15.22;99.35
57990;BME280;58373;51.824;5.564;2023-05-22T02:11:15;101372.31;;;15.20;99.04
57990;BME280;58373;51.824;5.564;2023-05-22T02:13:41;101369.00;;;15.18;99.05
57990;BME280;58373;51.824;5.564;2023-05-22T02:16:07;101370.94;;;15.16;99.48
57990;BME280;58373;51.824;5.564;2023-05-22T02:18:32;101371.09;;;15.14;99.35
57990;BME280;58373;51.824;5.564;2023-05-22T02:20:58;101371.22;;;15.13;99.27
57990;BME280;58373;51.824;5.564;2023-05-22T02:23:23;101367.09;;;15.10;99.38
57990;BME280;58373;51.824;5.564;2023-05-22T02:25:49;101363.81;;;15.08;99.33
57990;BME280;58373;51.824;5.564;2023-05-22T02:28:14;101363.28;;;15.05;99.29
57990;BME280;58373;51.824;5.564;2023-05-22T02:30:39;101362.44;;;15.04;99.29
57990;BME280;58373;51.824;5.564;2023-05-22T02:33:05;101360.09;;;15.01;99.58
57990;BME280;58373;51.824;5.564;2023-05-22T02:35:30;101360.25;;;15.00;99.51
57990;BME280;58373;51.824;5.564;2023-05-22T02:37:56;101356.97;;;14.98;99.37
57990;BME280;58373;51.824;5.564;2023-05-22T02:40:21;101352.00;;;14.95;99.34
57990;BME280;58373;51.824;5.564;2023-05-22T02:42:46;101344.59;;;14.90;99.43
57990;BME280;58373;51.824;5.564;2023-05-22T02:45:12;101354.50;;;14.86;99.16
57990;BME280;58373;51.824;5.564;2023-05-22T02:47:37;101360.00;;;14.83;99.71
57990;BME280;58373;51.824;5.564;2023-05-22T02:50:02;101351.50;;;14.81;99.21
57990;BME280;58373;51.824;5.564;2023-05-22T02:52:27;101349.84;;;14.80;99.51
57990;BME280;58373;51.824;5.564;2023-05-22T02:54:53;101344.63;;;14.80;99.64
57990;BME280;58373;51.824;5.564;2023-05-22T02:57:18;101343.81;;;14.80;100.00
57990;BME280;58373;51.824;5.564;2023-05-22T02:59:43;101348.19;;;14.79;99.93
57990;BME280;58373;51.824;5.564;2023-05-22T03:02:08;101342.69;;;14.73;100.00
57990;BME280;58373;51.824;5.564;2023-05-22T03:04:34;101344.63;;;14.71;100.00
57990;BME280;58373;51.824;5.564;2023-05-22T03:07:02;101343.50;;;14.73;100.00
57990;BME280;58373;51.824;5.564;2023-05-22T03:09:27;101352.31;;;14.72;100.00
57990;BME280;58373;51.824;5.564;2023-05-22T03:11:52;101345.19;;;14.74;100.00
57990;BME280;58373;51.824;5.564;2023-05-22T03:14:18;101339.81;;;14.76;100.00
57990;BME280;58373;51.824;5.564;2023-05-22T03:16:43;101348.72;;;14.73;100.00
57990;BME280;58373;51.824;5.564;2023-05-22T03:19:08;101339.56;;;14.69;100.00
57990;BME280;58373;51.824;5.564;2023-05-22T03:21:34;101336.94;;;14.69;100.00
57990;BME280;58373;51.824;5.564;2023-05-22T03:24:00;101340.53;;;14.68;100.00
57990;BME280;58373;51.824;5.564;2023-05-22T03:26:25;101330.91;;;14.69;100.00
57990;BME280;58373;51.824;5.564;2023-05-22T03:28:52;101331.84;;;14.68;100.00
57990;BME280;58373;51.824;5.564;2023-05-22T03:31:17;101332.28;;;14.63;100.00
57990;BME280;58373;51.824;5.564;2023-05-22T03:33:42;101333.09;;;14.54;100.00
57990;BME280;58373;51.824;5.564;2023-05-22T03:36:07;101328.16;;;14.51;100.00
57990;BME280;58373;51.824;5.564;2023-05-22T03:38:33;101326.50;;;14.50;100.00
57990;BME280;58373;51.824;5.564;2023-05-22T03:40:59;101327.19;;;14.52;100.00
57990;BME280;58373;51.824;5.564;2023-05-22T03:43:24;101327.88;;;14.54;100.00
57990;BME280;58373;51.824;5.564;2023-05-22T03:45:49;101329.53;;;14.55;100.00
57990;BME280;58373;51.824;5.564;2023-05-22T03:48:15;101336.69;;;14.53;100.00
57990;BME280;58373;51.824;5.564;2023-05-22T03:50:40;101330.06;;;14.49;100.00
57990;BME280;58373;51.824;5.564;2023-05-22T03:53:05;101337.50;;;14.53;100.00
57990;BME280;58373;51.824;5.564;2023-05-22T03:55:30;101329.81;;;14.52;100.00
57990;BME280;58373;51.824;5.564;2023-05-22T03:57:55;101329.53;;;14.55;100.00
57990;BME280;58373;51.824;5.564;2023-05-22T04:00:21;101328.16;;;14.51;100.00
57990;BME280;58373;51.824;5.564;2023-05-22T04:02:46;101324.84;;;14.49;100.00
57990;BME280;58373;51.824;5.564;2023-05-22T04:05:14;101324.84;;;14.49;100.00
57990;BME280;58373;51.824;5.564;2023-05-22T04:07:39;101327.47;;;14.49;100.00
57990;BME280;58373;51.824;5.564;2023-05-22T04:10:04;101324.41;;;14.44;100.00
57990;BME280;58373;51.824;5.564;2023-05-22T04:12:30;101332.53;;;14.41;100.00
57990;BME280;58373;51.824;5.564;2023-05-22T04:14:55;101331.41;;;14.33;100.00
57990;BME280;58373;51.824;5.564;2023-05-22T04:17:20;101339.94;;;14.35;100.00
57990;BME280;58373;51.824;5.564;2023-05-22T04:19:46;101335.56;;;14.36;100.00
57990;BME280;58373;51.824;5.564;2023-05-22T04:22:11;101335.81;;;14.33;100.00
57990;BME280;58373;51.824;5.564;2023-05-22T04:24:36;101349.81;;;14.32;100.00
57990;BME280;58373;51.824;5.564;2023-05-22T04:27:03;101347.06;;;14.33;100.00
57990;BME280;58373;51.824;5.564;2023-05-22T04:29:29;101344.19;;;14.17;100.00
57990;BME280;58373;51.824;5.564;2023-05-22T04:31:54;101344.75;;;14.11;100.00
57990;BME280;58373;51.824;5.564;2023-05-22T04:34:21;101337.16;;;14.08;100.00
57990;BME280;58373;51.824;5.564;2023-05-22T04:36:48;101342.69;;;14.05;100.00
57990;BME280;58373;51.824;5.564;2023-05-22T04:39:13;101354.88;;;13.95;100.00
57990;BME280;58373;51.824;5.564;2023-05-22T04:41:38;101358.56;;;13.92;100.00
57990;BME280;58373;51.824;5.564;2023-05-22T04:44:04;101358.00;;;13.89;100.00
57990;BME280;58373;51.824;5.564;2023-05-22T04:46:29;101367.28;;;13.81;100.00
57990;BME280;58373;51.824;5.564;2023-05-22T04:48:55;101356.34;;;13.78;100.00
57990;BME280;58373;51.824;5.564;2023-05-22T04:51:22;101364.28;;;13.76;100.00
57990;BME280;58373;51.824;5.564;2023-05-22T04:53:47;101360.72;;;13.77;100.00
57990;BME280;58373;51.824;5.564;2023-05-22T04:56:13;101359.31;;;13.73;100.00
57990;BME280;58373;51.824;5.564;2023-05-22T04:58:39;101352.47;;;13.72;100.00
57990;BME280;58373;51.824;5.564;2023-05-22T05:01:04;101354.13;;;13.73;100.00
57990;BME280;58373;51.824;5.564;2023-05-22T05:03:29;101363.16;;;13.69;100.00
57990;BME280;58373;51.824;5.564;2023-05-22T05:05:54;101364.69;;;13.72;100.00
57990;BME280;58373;51.824;5.564;2023-05-22T05:08:20;101364.28;;;13.76;100.00
57990;BME280;58373;51.824;5.564;2023-05-22T05:10:45;101378.00;;;13.78;100.00
57990;BME280;58373;51.824;5.564;2023-05-22T05:13:11;101369.50;;;13.76;100.00
57990;BME280;58373;51.824;5.564;2023-05-22T05:15:36;101366.19;;;13.74;100.00
57990;BME280;58373;51.824;5.564;2023-05-22T05:18:01;101371.69;;;13.71;100.00
57990;BME280;58373;51.824;5.564;2023-05-22T05:20:26;101369.19;;;13.70;100.00
57990;BME280;58373;51.824;5.564;2023-05-22T05:22:52;101370.00;;;13.70;100.00
57990;BME280;58373;51.824;5.564;2023-05-22T05:25:17;101367.28;;;13.72;100.00
57990;BME280;58373;51.824;5.564;2023-05-22T05:27:42;101370.56;;;13.74;100.00
57990;BME280;58373;51.824;5.564;2023-05-22T05:30:08;101381.81;;;13.74;100.00
57990;BME280;58373;51.824;5.564;2023-05-22T05:32:33;101374.16;;;13.73;100.00
57990;BME280;58373;51.824;5.564;2023-05-22T05:34:58;101381.28;;;13.80;100.00
57990;BME280;58373;51.824;5.564;2023-05-22T05:37:23;101385.16;;;13.76;100.00
57990;BME280;58373;51.824;5.564;2023-05-22T05:39:49;101379.59;;;13.70;100.00
57990;BME280;58373;51.824;5.564;2023-05-22T05:42:14;101387.31;;;13.71;100.00
57990;BME280;58373;51.824;5.564;2023-05-22T05:44:41;101384.00;;;13.69;100.00
57990;BME280;58373;51.824;5.564;2023-05-22T05:47:06;101386.59;;;13.69;100.00
57990;BME280;58373;51.824;5.564;2023-05-22T05:49:31;101383.75;;;13.72;100.00
57990;BME280;58373;51.824;5.564;2023-05-22T05:51:57;101383.22;;;13.78;100.00
57990;BME280;58373;51.824;5.564;2023-05-22T05:54:22;101382.00;;;13.82;100.00
57990;BME280;58373;51.824;5.564;2023-05-22T05:56:50;101388.59;;;13.87;100.00
57990;BME280;58373;51.824;5.564;2023-05-22T05:59:15;101393.28;;;13.93;100.00
57990;BME280;58373;51.824;5.564;2023-05-22T06:01:42;101400.56;;;13.99;100.00
57990;BME280;58373;51.824;5.564;2023-05-22T06:04:08;101395.09;;;14.02;100.00
57990;BME280;58373;51.824;5.564;2023-05-22T06:06:33;101385.75;;;13.99;100.00
57990;BME280;58373;51.824;5.564;2023-05-22T06:09:03;101390.13;;;13.99;100.00
57990;BME280;58373;51.824;5.564;2023-05-22T06:11:31;101393.16;;;14.04;100.00
57990;BME280;58373;51.824;5.564;2023-05-22T06:13:57;101390.97;;;14.09;100.00
57990;BME280;58373;51.824;5.564;2023-05-22T06:16:23;101394.31;;;14.11;100.00
57990;BME280;58373;51.824;5.564;2023-05-22T06:18:48;101397.59;;;14.13;100.00
57990;BME280;58373;51.824;5.564;2023-05-22T06:21:16;101395.53;;;14.07;100.00
57990;BME280;58373;51.824;5.564;2023-05-22T06:23:44;101407.22;;;14.13;100.00
57990;BME280;58373;51.824;5.564;2023-05-22T06:26:10;101408.03;;;14.13;100.00
57990;BME280;58373;51.824;5.564;2023-05-22T06:28:35;101411.59;;;14.12;100.00
57990;BME280;58373;51.824;5.564;2023-05-22T06:31:00;101410.50;;;14.15;100.00
57990;BME280;58373;51.824;5.564;2023-05-22T06:33:25;101405.84;;;14.18;100.00
57990;BME280;58373;51.824;5.564;2023-05-22T06:35:50;101410.78;;;14.21;100.00
57990;BME280;58373;51.824;5.564;2023-05-22T06:38:16;101410.53;;;14.24;100.00
57990;BME280;58373;51.824;5.564;2023-05-22T06:40:41;101407.91;;;14.24;100.00
57990;BME280;58373;51.824;5.564;2023-05-22T06:43:06;101413.56;;;14.29;100.00
57990;BME280;58373;51.824;5.564;2023-05-22T06:45:31;101406.16;;;14.34;100.00
57990;BME280;58373;51.824;5.564;2023-05-22T06:47:57;101416.72;;;14.43;100.00
57990;BME280;58373;51.824;5.564;2023-05-22T06:50:22;101424.56;;;14.43;100.00
57990;BME280;58373;51.824;5.564;2023-05-22T06:52:47;101417.41;;;14.45;100.00
57990;BME280;58373;51.824;5.564;2023-05-22T06:55:13;101419.34;;;14.43;100.00
57990;BME280;58373;51.824;5.564;2023-05-22T06:57:38;101419.34;;;14.43;100.00
57990;BME280;58373;51.824;5.564;2023-05-22T07:00:04;101415.25;;;14.50;100.00
57990;BME280;58373;51.824;5.564;2023-05-22T07:02:33;101416.38;;;14.57;100.00
57990;BME280;58373;51.824;5.564;2023-05-22T07:04:59;101419.66;;;14.59;100.00
57990;BME280;58373;51.824;5.564;2023-05-22T07:07:24;101420.06;;;14.64;100.00
57990;BME280;58373;51.824;5.564;2023-05-22T07:09:49;101422.13;;;14.70;100.00
57990;BME280;58373;51.824;5.564;2023-05-22T07:12:15;101423.22;;;14.77;100.00
57990;BME280;58373;51.824;5.564;2023-05-22T07:14:40;101426.00;;;14.85;100.00
57990;BME280;58373;51.824;5.564;2023-05-22T07:17:06;101418.28;;;14.94;100.00
57990;BME280;58373;51.824;5.564;2023-05-22T07:19:31;101429.81;;;15.01;100.00
57990;BME280;58373;51.824;5.564;2023-05-22T07:21:56;101424.84;;;15.07;100.00
57990;BME280;58373;51.824;5.564;2023-05-22T07:24:23;101430.63;;;15.11;100.00
57990;BME280;58373;51.824;5.564;2023-05-22T07:26:49;101426.09;;;15.13;100.00
57990;BME280;58373;51.824;5.564;2023-05-22T07:29:14;101425.66;;;15.18;100.00
57990;BME280;58373;51.824;5.564;2023-05-22T07:31:39;101432.78;;;15.25;100.00
57990;BME280;58373;51.824;5.564;2023-05-22T07:34:06;101430.59;;;15.30;100.00
57990;BME280;58373;51.824;5.564;2023-05-22T07:36:31;101429.09;;;15.37;100.00
57990;BME280;58373;51.824;5.564;2023-05-22T07:38:56;101431.13;;;15.44;100.00
57990;BME280;58373;51.824;5.564;2023-05-22T07:41:22;101428.59;;;15.52;100.00
57990;BME280;58373;51.824;5.564;2023-05-22T07:43:48;101426.94;;;15.60;100.00
57990;BME280;58373;51.824;5.564;2023-05-22T07:46:13;101423.63;;;15.68;100.00
57990;BME280;58373;51.824;5.564;2023-05-22T07:48:38;101422.78;;;15.77;100.00
57990;BME280;58373;51.824;5.564;2023-05-22T07:51:03;101425.75;;;15.82;100.00
57990;BME280;58373;51.824;5.564;2023-05-22T07:53:29;101424.75;;;15.93;100.00
57990;BME280;58373;51.824;5.564;2023-05-22T07:55:54;101431.31;;;16.07;100.00
57990;BME280;58373;51.824;5.564;2023-05-22T07:58:19;101428.38;;;16.10;100.00
57990;BME280;58373;51.824;5.564;2023-05-22T08:00:44;101427.78;;;16.16;100.00
57990;BME280;58373;51.824;5.564;2023-05-22T08:03:10;101442.03;;;16.31;100.00
57990;BME280;58373;51.824;5.564;2023-05-22T08:05:35;101449.91;;;16.49;100.00
57990;BME280;58373;51.824;5.564;2023-05-22T08:08:01;101448.13;;;16.50;100.00
57990;BME280;58373;51.824;5.564;2023-05-22T08:10:27;101445.44;;;16.59;100.00
57990;BME280;58373;51.824;5.564;2023-05-22T08:12:52;101443.69;;;16.68;100.00
57990;BME280;58373;51.824;5.564;2023-05-22T08:15:17;101446.13;;;16.79;100.00
57990;BME280;58373;51.824;5.564;2023-05-22T08:17:42;101452.13;;;16.89;100.00
57990;BME280;58373;51.824;5.564;2023-05-22T08:20:07;101453.47;;;16.93;100.00
57990;BME280;58373;51.824;5.564;2023-05-22T08:22:33;101455.13;;;16.94;100.00
57990;BME280;58373;51.824;5.564;2023-05-22T08:24:58;101454.81;;;16.97;100.00
57990;BME280;58373;51.824;5.564;2023-05-22T08:27:24;101454.22;;;17.04;100.00
57990;BME280;58373;51.824;5.564;2023-05-22T08:29:49;101443.13;;;17.10;100.00
57990;BME280;58373;51.824;5.564;2023-05-22T08:32:16;101443.63;;;17.13;100.00
57990;BME280;58373;51.824;5.564;2023-05-22T08:34:41;101449.38;;;17.17;100.00
57990;BME280;58373;51.824;5.564;2023-05-22T08:37:06;101454.03;;;17.23;100.00
57990;BME280;58373;51.824;5.564;2023-05-22T08:39:33;101453.50;;;17.19;100.00
57990;BME280;58373;51.824;5.564;2023-05-22T08:41:58;101448.13;;;17.21;100.00
57990;BME280;58373;51.824;5.564;2023-05-22T08:44:23;101453.69;;;17.26;100.00
57990;BME280;58373;51.824;5.564;2023-05-22T08:46:50;101455.13;;;17.38;100.00
57990;BME280;58373;51.824;5.564;2023-05-22T08:49:15;101447.50;;;17.27;100.00
57990;BME280;58373;51.824;5.564;2023-05-22T08:51:41;101447.88;;;17.32;100.00
57990;BME280;58373;51.824;5.564;2023-05-22T08:54:10;101439.75;;;17.43;100.00
57990;BME280;58373;51.824;5.564;2023-05-22T08:56:35;101451.91;;;17.52;100.00
57990;BME280;58373;51.824;5.564;2023-05-22T08:59:01;101445.59;;;17.63;100.00
57990;BME280;58373;51.824;5.564;2023-05-22T09:01:27;101447.16;;;17.74;100.00
57990;BME280;58373;51.824;5.564;2023-05-22T09:03:52;101452.13;;;17.85;100.00
57990;BME280;58373;51.824;5.564;2023-05-22T09:06:17;101452.16;;;17.93;100.00
57990;BME280;58373;51.824;5.564;2023-05-22T09:08:43;101450.19;;;17.95;100.00
57990;BME280;58373;51.824;5.564;2023-05-22T09:11:08;101448.94;;;18.08;100.00
57990;BME280;58373;51.824;5.564;2023-05-22T09:13:34;101441.88;;;18.16;100.00
57990;BME280;58373;51.824;5.564;2023-05-22T09:16:11;101447.00;;;18.26;100.00
57990;BME280;58373;51.824;5.564;2023-05-22T09:18:37;101440.81;;;18.35;100.00
57990;BME280;58373;51.824;5.564;2023-05-22T09:21:03;101441.16;;;18.48;100.00
57990;BME280;58373;51.824;5.564;2023-05-22T09:23:28;101444.47;;;18.58;100.00
57990;BME280;58373;51.824;5.564;2023-05-22T09:25:54;101445.44;;;18.66;100.00
57990;BME280;58373;51.824;5.564;2023-05-22T09:28:20;101441.03;;;18.74;100.00
57990;BME280;58373;51.824;5.564;2023-05-22T09:30:49;101445.81;;;18.87;100.00
57990;BME280;58373;51.824;5.564;2023-05-22T09:33:15;101445.16;;;18.93;99.58
57990;BME280;58373;51.824;5.564;2023-05-22T09:35:40;101440.88;;;19.00;99.48
57990;BME280;58373;51.824;5.564;2023-05-22T09:38:08;101448.44;;;19.12;99.25
57990;BME280;58373;51.824;5.564;2023-05-22T09:40:33;101440.53;;;19.20;98.87
57990;BME280;58373;51.824;5.564;2023-05-22T09:42:59;101445.13;;;19.26;97.66
57990;BME280;58373;51.824;5.564;2023-05-22T09:45:24;101433.94;;;19.32;97.78
57990;BME280;58373;51.824;5.564;2023-05-22T09:47:51;101437.88;;;19.44;97.76
57990;BME280;58373;51.824;5.564;2023-05-22T09:50:16;101436.53;;;19.56;96.92
57990;BME280;58373;51.824;5.564;2023-05-22T09:52:43;101439.16;;;19.65;96.87
57990;BME280;58373;51.824;5.564;2023-05-22T09:55:08;101441.75;;;19.73;97.01
57990;BME280;58373;51.824;5.564;2023-05-22T09:57:43;101440.72;;;19.82;96.26
57990;BME280;58373;51.824;5.564;2023-05-22T10:00:12;101426.88;;;19.88;95.65
57990;BME280;58373;51.824;5.564;2023-05-22T10:02:46;101430.47;;;19.95;95.15
57990;BME280;58373;51.824;5.564;2023-05-22T10:05:12;101428.31;;;19.99;94.74
57990;BME280;58373;51.824;5.564;2023-05-22T10:07:55;101427.81;;;20.03;94.81
57990;BME280;58373;51.824;5.564;2023-05-22T10:10:21;101437.78;;;20.16;94.62
57990;BME280;58373;51.824;5.564;2023-05-22T10:12:49;101428.66;;;20.27;94.50
57990;BME280;58373;51.824;5.564;2023-05-22T10:15:15;101427.97;;;20.33;94.11
57990;BME280;58373;51.824;5.564;2023-05-22T10:17:41;101426.25;;;20.40;94.02
57990;BME280;58373;51.824;5.564;2023-05-22T10:20:07;101426.56;;;20.45;92.52
57990;BME280;58373;51.824;5.564;2023-05-22T10:22:36;101412.31;;;20.62;90.91
57990;BME280;58373;51.824;5.564;2023-05-22T10:25:01;101417.28;;;20.57;91.00
57990;BME280;58373;51.824;5.564;2023-05-22T10:27:27;101415.59;;;20.64;92.77
57990;BME280;58373;51.824;5.564;2023-05-22T10:32:41;101420.66;;;20.89;90.73
57990;BME280;58373;51.824;5.564;2023-05-22T10:37:53;101417.94;;;20.97;90.77
57990;BME280;58373;51.824;5.564;2023-05-22T10:40:24;101412.84;;;21.10;90.56
57990;BME280;58373;51.824;5.564;2023-05-22T10:42:56;101401.88;;;21.21;90.13
57990;BME280;58373;51.824;5.564;2023-05-22T10:45:24;101408.94;;;21.29;89.42
57990;BME280;58373;51.824;5.564;2023-05-22T10:47:51;101413.56;;;21.42;87.67
57990;BME280;58373;51.824;5.564;2023-05-22T10:50:25;101406.00;;;21.39;89.28
57990;BME280;58373;51.824;5.564;2023-05-22T10:52:50;101409.47;;;21.54;88.48
57990;BME280;58373;51.824;5.564;2023-05-22T10:55:36;101399.72;;;21.69;88.28
57990;BME280;58373;51.824;5.564;2023-05-22T10:58:13;101410.09;;;21.86;88.44
57990;BME280;58373;51.824;5.564;2023-05-22T11:00:39;101409.41;;;21.98;87.83
57990;BME280;58373;51.824;5.564;2023-05-22T11:03:04;101403.56;;;22.03;87.09
57990;BME280;58373;51.824;5.564;2023-05-22T11:10:53;101416.94;;;22.16;84.28
57990;BME280;58373;51.824;5.564;2023-05-22T11:13:19;101418.72;;;22.31;81.71
57990;BME280;58373;51.824;5.564;2023-05-22T11:15:45;101414.31;;;22.16;81.44
57990;BME280;58373;51.824;5.564;2023-05-22T11:18:10;101406.97;;;22.33;78.05
57990;BME280;58373;51.824;5.564;2023-05-22T11:20:36;101400.13;;;22.03;80.69
57990;BME280;58373;51.824;5.564;2023-05-22T11:23:04;101404.38;;;22.18;80.96
57990;BME280;58373;51.824;5.564;2023-05-22T11:25:30;101395.81;;;22.16;81.92
57990;BME280;58373;51.824;5.564;2023-05-22T11:27:56;101396.34;;;22.26;82.93
57990;BME280;58373;51.824;5.564;2023-05-22T11:30:25;101395.06;;;22.44;80.74
57990;BME280;58373;51.824;5.564;2023-05-22T11:32:51;101394.81;;;22.39;81.10
57990;BME280;58373;51.824;5.564;2023-05-22T11:35:17;101392.78;;;22.41;81.64
57990;BME280;58373;51.824;5.564;2023-05-22T11:37:43;101396.75;;;22.51;82.08
57990;BME280;58373;51.824;5.564;2023-05-22T11:40:08;101398.34;;;22.67;81.41
57990;BME280;58373;51.824;5.564;2023-05-22T11:42:35;101398.81;;;22.77;81.55
57990;BME280;58373;51.824;5.564;2023-05-22T11:45:00;101397.31;;;22.90;82.16
57990;BME280;58373;51.824;5.564;2023-05-22T11:47:26;101395.78;;;23.02;80.39
57990;BME280;58373;51.824;5.564;2023-05-22T11:49:52;101396.22;;;23.05;81.56
57990;BME280;58373;51.824;5.564;2023-05-22T11:52:18;101386.91;;;23.16;81.61
57990;BME280;58373;51.824;5.564;2023-05-22T11:54:46;101384.97;;;23.31;79.83
57990;BME280;58373;51.824;5.564;2023-05-22T11:57:12;101387.00;;;23.29;79.20
57990;BME280;58373;51.824;5.564;2023-05-22T11:59:37;101378.47;;;23.34;80.28
57990;BME280;58373;51.824;5.564;2023-05-22T12:02:02;101388.69;;;23.44;79.85
57990;BME280;58373;51.824;5.564;2023-05-22T12:04:27;101382.59;;;23.50;79.09
57990;BME280;58373;51.824;5.564;2023-05-22T12:06:53;101388.34;;;23.53;78.62
57990;BME280;58373;51.824;5.564;2023-05-22T12:09:18;101385.47;;;23.55;79.34
57990;BME280;58373;51.824;5.564;2023-05-22T12:11:47;101381.06;;;23.62;78.46
57990;BME280;58373;51.824;5.564;2023-05-22T12:14:12;101378.25;;;23.70;77.61
57990;BME280;58373;51.824;5.564;2023-05-22T12:16:38;101387.22;;;23.69;75.93
57990;BME280;58373;51.824;5.564;2023-05-22T12:19:04;101370.47;;;23.62;77.65
57990;BME280;58373;51.824;5.564;2023-05-22T12:21:30;101369.91;;;23.73;76.79
57990;BME280;58373;51.824;5.564;2023-05-22T12:23:55;101375.03;;;23.75;77.27
57990;BME280;58373;51.824;5.564;2023-05-22T12:26:22;101382.16;;;23.74;75.22
57990;BME280;58373;51.824;5.564;2023-05-22T12:28:51;101376.22;;;23.72;75.77
57990;BME280;58373;51.824;5.564;2023-05-22T12:31:19;101376.66;;;23.76;75.77
57990;BME280;58373;51.824;5.564;2023-05-22T12:33:45;101374.63;;;23.84;76.15
57990;BME280;58373;51.824;5.564;2023-05-22T12:36:10;101371.81;;;23.93;75.06
57990;BME280;58373;51.824;5.564;2023-05-22T12:38:36;101379.34;;;23.96;75.95
57990;BME280;58373;51.824;5.564;2023-05-22T12:41:01;101373.88;;;24.04;74.91
57990;BME280;58373;51.824;5.564;2023-05-22T12:43:26;101373.06;;;24.03;74.86
57990;BME280;58373;51.824;5.564;2023-05-22T12:45:52;101382.84;;;24.03;74.50
57990;BME280;58373;51.824;5.564;2023-05-22T12:48:17;101372.44;;;24.08;73.53
57990;BME280;58373;51.824;5.564;2023-05-22T12:50:43;101373.88;;;24.17;72.06
57990;BME280;58373;51.824;5.564;2023-05-22T12:53:08;101371.00;;;24.05;74.86
57990;BME280;58373;51.824;5.564;2023-05-22T12:55:34;101374.28;;;24.14;73.96
57990;BME280;58373;51.824;5.564;2023-05-22T12:57:59;101376.75;;;24.22;72.37
57990;BME280;58373;51.824;5.564;2023-05-22T13:00:25;101371.84;;;24.19;73.32
57990;BME280;58373;51.824;5.564;2023-05-22T13:02:50;101374.31;;;24.27;72.44
57990;BME280;58373;51.824;5.564;2023-05-22T13:05:15;101371.03;;;24.25;73.03